createdAt,value
2023-04-02T00:01:18.372Z,11.17
2023-04-02T00:03:46.103Z,11.26
2023-04-02T00:06:34.476Z,11.33
2023-04-02T00:09:22.312Z,11.27
2023-04-02T00:11:54.759Z,11.37
2023-04-02T00:14:33.576Z,11.24
2023-04-02T00:17:02.536Z,11.19
2023-04-02T00:19:38.595Z,11.23
2023-04-02T00:22:06.725Z,11.24
2023-04-02T00:24:34.056Z,11.30
2023-04-02T00:27:01.316Z,11.22
2023-04-02T00:29:28.611Z,11.23
2023-04-02T00:31:56.007Z,11.37
2023-04-02T00:34:31.108Z,11.34
2023-04-02T00:36:58.378Z,11.36
2023-04-02T00:39:34.776Z,11.34
2023-04-02T00:42:05.076Z,11.15
2023-04-02T00:44:42.797Z,11.05
2023-04-02T00:47:22.749Z,11.03
2023-04-02T00:50:01.582Z,11.16
2023-04-02T00:52:30.622Z,11.15
2023-04-02T00:55:23.941Z,10.96
2023-04-02T00:57:51.719Z,11.02
2023-04-02T01:00:48.447Z,11.06
2023-04-02T01:03:19.510Z,11.03
2023-04-02T01:05:50.392Z,11.10
2023-04-02T01:08:49.150Z,11.03
2023-04-02T01:11:44.350Z,10.96
2023-04-02T01:14:34.674Z,11.00
2023-04-02T01:17:30.662Z,10.89
2023-04-02T01:20:36.747Z,10.96
2023-04-02T01:23:18.604Z,10.93
2023-04-02T01:26:09.119Z,10.99
2023-04-02T01:29:06.854Z,10.95
2023-04-02T01:31:34.305Z,10.86
2023-04-02T01:34:02.673Z,10.85
2023-04-02T01:36:33.410Z,10.85
2023-04-02T01:39:24.239Z,10.93
2023-04-02T01:42:06.262Z,10.76
2023-04-02T01:44:42.644Z,10.73
2023-04-02T01:47:14.332Z,10.73
2023-04-02T01:49:44.976Z,10.76
2023-04-02T01:52:25.713Z,10.68
2023-04-02T01:54:53.844Z,10.73
2023-04-02T01:57:21.374Z,10.75
2023-04-02T01:59:48.806Z,10.73
2023-04-02T02:02:16.195Z,10.65
2023-04-02T02:04:43.912Z,10.68
2023-04-02T02:07:16.278Z,10.67
2023-04-02T02:09:47.063Z,10.72
2023-04-02T02:12:14.853Z,10.73
2023-04-02T02:14:49.083Z,10.72
2023-04-02T02:17:26.652Z,10.68
2023-04-02T02:19:57.922Z,10.55
2023-04-02T02:22:28.309Z,10.67
2023-04-02T02:24:56.724Z,10.67
2023-04-02T02:27:24.034Z,10.57
2023-04-02T02:30:06.286Z,10.57
2023-04-02T02:32:33.682Z,10.65
2023-04-02T02:35:08.322Z,10.47
2023-04-02T02:37:37.651Z,10.42
2023-04-02T02:40:06.892Z,10.28
2023-04-02T02:42:37.389Z,10.16
2023-04-02T02:45:07.059Z,10.10
2023-04-02T02:47:35.544Z,10.13
2023-04-02T02:50:12.312Z,10.16
2023-04-02T02:52:40.348Z,10.30
2023-04-02T02:55:17.808Z,10.45
2023-04-02T02:58:32.094Z,10.54
2023-04-02T03:01:16.810Z,10.61
2023-04-02T03:03:44.994Z,10.68
2023-04-02T03:06:16.604Z,10.68
2023-04-02T03:09:12.792Z,10.67
2023-04-02T03:11:45.655Z,10.68
2023-04-02T03:14:29.531Z,10.71
2023-04-02T03:17:00.650Z,10.71
2023-04-02T03:19:50.668Z,10.44
2023-04-02T03:22:26.299Z,10.47
2023-04-02T03:25:01.218Z,10.52
2023-04-02T03:27:38.736Z,10.47
2023-04-02T03:30:44.252Z,10.57
2023-04-02T03:33:34.485Z,10.36
2023-04-02T03:36:22.134Z,10.51
2023-04-02T03:39:13.572Z,10.54
2023-04-02T03:41:45.457Z,10.44
2023-04-02T03:44:44.574Z,10.17
2023-04-02T03:47:15.554Z,10.22
2023-04-02T03:50:43.764Z,10.20
2023-04-02T03:53:11.331Z,10.20
2023-04-02T03:55:40.105Z,10.25
2023-04-02T03:58:21.394Z,10.20
2023-04-02T04:01:12.528Z,10.00
2023-04-02T04:03:43.131Z,10.01
2023-04-02T04:06:32.210Z,10.03
2023-04-02T04:09:11.044Z,10.01
2023-04-02T04:11:43.816Z,9.99
2023-04-02T04:14:20.037Z,10.00
2023-04-02T04:17:06.062Z,9.99
2023-04-02T04:19:34.882Z,10.06
2023-04-02T04:22:15.323Z,10.06
2023-04-02T04:24:45.920Z,10.06
2023-04-02T04:27:33.896Z,10.09
2023-04-02T04:30:24.530Z,10.03
2023-04-02T04:33:23.260Z,10.16
2023-04-02T04:35:56.860Z,10.28
2023-04-02T04:38:39.202Z,10.25
2023-04-02T04:41:17.721Z,10.24
2023-04-02T04:44:07.043Z,10.16
2023-04-02T04:46:45.373Z,10.16
2023-04-02T04:49:31.655Z,9.91
2023-04-02T04:52:10.205Z,10.06
2023-04-02T04:54:38.802Z,10.24
2023-04-02T04:57:07.318Z,10.25
2023-04-02T04:59:46.120Z,10.37
2023-04-02T05:02:18.036Z,10.52
2023-04-02T05:04:49.656Z,10.54
2023-04-02T05:07:23.995Z,10.42
2023-04-02T05:10:15.837Z,10.44
2023-04-02T05:13:21.074Z,10.59
2023-04-02T05:16:23.415Z,10.62
2023-04-02T05:18:56.840Z,10.31
2023-04-02T05:21:42.686Z,10.33
2023-04-02T05:24:14.497Z,10.20
2023-04-02T05:26:43.376Z,10.14
2023-04-02T05:29:31.845Z,10.14
2023-04-02T05:32:03.661Z,10.14
2023-04-02T05:34:33.476Z,10.01
2023-04-02T05:37:00.823Z,10.06
2023-04-02T05:39:28.177Z,10.13
2023-04-02T05:42:04.584Z,10.30
2023-04-02T05:45:18.218Z,10.51
2023-04-02T05:47:46.876Z,10.52
2023-04-02T05:50:22.020Z,10.55
2023-04-02T05:52:53.507Z,10.71
2023-04-02T05:55:35.974Z,10.76
2023-04-02T05:58:37.193Z,10.79
2023-04-02T06:01:47.511Z,10.95
2023-04-02T06:04:41.373Z,11.07
2023-04-02T06:07:16.940Z,11.05
2023-04-02T06:10:05.115Z,10.98
2023-04-02T06:12:45.759Z,10.95
2023-04-02T06:15:15.033Z,10.75
2023-04-02T06:18:28.435Z,10.73
2023-04-02T06:20:56.904Z,10.67
2023-04-02T06:24:09.144Z,10.80
2023-04-02T06:26:40.093Z,10.83
2023-04-02T06:29:11.779Z,10.86
2023-04-02T06:31:40.971Z,10.91
2023-04-02T06:34:21.094Z,10.85
2023-04-02T06:37:01.813Z,10.75
2023-04-02T06:39:31.072Z,10.82
2023-04-02T06:42:11.153Z,10.96
2023-04-02T06:45:00.381Z,10.98
2023-04-02T06:47:48.235Z,11.12
2023-04-02T06:50:44.028Z,11.30
2023-04-02T06:53:25.725Z,11.44
2023-04-02T06:56:04.419Z,11.51
2023-04-02T06:58:33.055Z,11.67
2023-04-02T07:01:02.353Z,11.87
2023-04-02T07:03:39.311Z,11.84
2023-04-02T07:06:18.224Z,11.84
2023-04-02T07:08:47.621Z,12.12
2023-04-02T07:11:20.648Z,12.39
2023-04-02T07:13:49.840Z,12.52
2023-04-02T07:16:22.813Z,12.66
2023-04-02T07:18:50.373Z,12.87
2023-04-02T07:21:18.408Z,12.95
2023-04-02T07:23:46.426Z,13.39
2023-04-02T07:26:19.289Z,13.49
2023-04-02T07:28:46.691Z,14.13
2023-04-02T07:31:17.811Z,14.32
2023-04-02T07:33:45.456Z,14.34
2023-04-02T07:36:20.548Z,14.27
2023-04-02T07:38:47.955Z,14.14
2023-04-02T07:41:15.483Z,13.96
2023-04-02T07:43:42.912Z,13.82
2023-04-02T07:46:10.435Z,13.77
2023-04-02T07:48:37.835Z,13.91
2023-04-02T07:51:05.413Z,14.09
2023-04-02T07:53:34.413Z,14.04
2023-04-02T07:56:02.984Z,14.14
2023-04-02T07:58:30.979Z,14.21
2023-04-02T08:00:58.624Z,13.96
2023-04-02T08:03:26.068Z,13.89
2023-04-02T08:05:54.540Z,13.99
2023-04-02T08:08:22.411Z,14.13
2023-04-02T08:10:49.755Z,14.04
2023-04-02T08:13:17.582Z,14.25
2023-04-02T08:15:44.802Z,14.25
2023-04-02T08:18:12.265Z,14.06
2023-04-02T08:20:39.592Z,14.30
2023-04-02T08:23:13.801Z,14.76
2023-04-02T08:25:41.247Z,15.04
2023-04-02T08:28:08.491Z,15.04
2023-04-02T08:30:36.022Z,14.80
2023-04-02T08:33:03.747Z,14.67
2023-04-02T08:35:31.334Z,14.62
2023-04-02T08:37:58.878Z,14.82
2023-04-02T08:40:48.045Z,14.83
2023-04-02T08:43:15.394Z,14.93
2023-04-02T08:46:02.797Z,14.78
2023-04-02T08:48:31.361Z,14.78
2023-04-02T08:50:59.071Z,14.78
2023-04-02T08:53:31.842Z,15.02
2023-04-02T08:56:08.612Z,14.83
2023-04-02T08:58:43.018Z,15.02
2023-04-02T09:01:40.238Z,15.14
2023-04-02T09:04:14.629Z,15.11
2023-04-02T09:06:43.842Z,15.16
2023-04-02T09:09:14.538Z,15.31
2023-04-02T09:11:44.252Z,15.44
2023-04-02T09:14:34.848Z,14.99
2023-04-02T09:17:02.830Z,15.07
2023-04-02T09:19:40.483Z,14.89
2023-04-02T09:22:21.014Z,14.92
2023-04-02T09:25:05.002Z,14.59
2023-04-02T09:27:33.883Z,14.52
2023-04-02T09:30:21.704Z,14.35
2023-04-02T09:32:49.617Z,14.31
2023-04-02T09:35:39.590Z,14.54
2023-04-02T09:38:21.791Z,14.49
2023-04-02T09:40:49.975Z,14.49
2023-04-02T09:43:19.068Z,14.64
2023-04-02T09:45:56.318Z,14.59
2023-04-02T09:48:30.576Z,14.30
2023-04-02T09:51:25.067Z,14.30
2023-04-02T09:54:04.466Z,14.32
2023-04-02T09:56:38.404Z,14.57
2023-04-02T09:59:05.695Z,14.57
2023-04-02T10:01:37.501Z,14.59
2023-04-02T10:04:05.849Z,14.59
2023-04-02T10:06:33.740Z,14.59
2023-04-02T10:09:34.078Z,14.73
2023-04-02T10:12:02.117Z,14.79
2023-04-02T10:14:49.674Z,14.92
2023-04-02T10:17:31.308Z,14.89
2023-04-02T10:20:17.327Z,14.76
2023-04-02T10:22:45.022Z,14.59
2023-04-02T10:25:16.333Z,14.64
2023-04-02T10:28:32.136Z,14.54
2023-04-02T10:31:10.472Z,14.57
2023-04-02T10:33:38.146Z,14.41
2023-04-02T10:36:40.178Z,14.46
2023-04-02T10:39:21.289Z,14.27
2023-04-02T10:42:01.130Z,14.13
2023-04-02T10:44:30.846Z,13.99
2023-04-02T10:47:22.543Z,13.80
2023-04-02T10:50:20.449Z,13.55
2023-04-02T10:52:56.136Z,13.19
2023-04-02T10:55:30.338Z,13.15
2023-04-02T10:57:58.543Z,13.16
2023-04-02T11:00:27.992Z,13.15
2023-04-02T11:03:06.189Z,13.31
2023-04-02T11:05:53.515Z,13.29
2023-04-02T11:08:30.870Z,13.39
2023-04-02T11:11:03.314Z,13.59
2023-04-02T11:13:36.023Z,13.77
2023-04-02T11:16:03.874Z,13.97
2023-04-02T11:18:36.778Z,13.99
2023-04-02T11:21:07.159Z,13.96
2023-04-02T11:23:57.675Z,14.07
2023-04-02T11:26:33.958Z,14.18
2023-04-02T11:29:13.255Z,14.21
2023-04-02T11:31:40.771Z,14.28
2023-04-02T11:34:13.156Z,14.14
2023-04-02T11:36:55.812Z,14.45
2023-04-02T11:40:00.616Z,14.64
2023-04-02T11:42:35.547Z,15.03
2023-04-02T11:45:24.118Z,15.11
2023-04-02T11:48:00.819Z,15.20
2023-04-02T11:50:34.473Z,15.24
2023-04-02T11:53:10.936Z,15.34
2023-04-02T11:55:42.751Z,15.17
2023-04-02T11:58:10.019Z,15.02
2023-04-02T12:00:55.645Z,15.04
2023-04-02T12:03:53.687Z,14.80
2023-04-02T12:06:59.985Z,14.62
2023-04-02T12:09:46.036Z,14.64
2023-04-02T12:12:40.256Z,14.38
2023-04-02T12:15:26.282Z,14.44
2023-04-02T12:17:53.640Z,14.32
2023-04-02T12:20:27.434Z,14.44
2023-04-02T12:22:55.774Z,14.22
2023-04-02T12:25:33.842Z,14.01
2023-04-02T12:28:10.420Z,13.90
2023-04-02T12:30:38.368Z,13.82
2023-04-02T12:33:37.289Z,13.86
2023-04-02T12:36:16.780Z,13.80
2023-04-02T12:38:55.100Z,13.79
2023-04-02T12:41:24.337Z,13.61
2023-04-02T12:44:01.786Z,13.70
2023-04-02T12:46:29.994Z,13.94
2023-04-02T12:49:26.377Z,13.87
2023-04-02T12:51:53.760Z,14.00
2023-04-02T12:54:21.027Z,13.74
2023-04-02T12:56:48.858Z,13.72
2023-04-02T12:59:34.837Z,13.39
2023-04-02T13:02:04.008Z,13.28
2023-04-02T13:04:31.489Z,13.26
2023-04-02T13:06:59.360Z,13.31
2023-04-02T13:09:39.911Z,13.16
2023-04-02T13:12:19.621Z,13.24
2023-04-02T13:14:46.912Z,13.19
2023-04-02T13:17:55.938Z,13.05
2023-04-02T13:20:34.471Z,13.04
2023-04-02T13:23:23.932Z,13.12
2023-04-02T13:25:51.529Z,13.11
2023-04-02T13:28:19.416Z,12.88
2023-04-02T13:30:46.770Z,13.12
2023-04-02T13:33:14.576Z,12.98
2023-04-02T13:35:42.169Z,13.10
2023-04-02T13:38:09.485Z,13.31
2023-04-02T13:40:37.710Z,13.32
2023-04-02T13:43:05.747Z,13.49
2023-04-02T13:45:35.049Z,13.35
2023-04-02T13:48:03.680Z,13.45
2023-04-02T13:50:32.782Z,13.45
2023-04-02T13:53:04.902Z,13.32
2023-04-02T13:55:32.849Z,13.21
2023-04-02T13:58:00.040Z,13.24
2023-04-02T14:00:27.840Z,13.24
2023-04-02T14:02:59.667Z,13.28
2023-04-02T14:05:48.335Z,13.34
2023-04-02T14:08:34.053Z,13.31
2023-04-02T14:11:04.353Z,13.38
2023-04-02T14:13:31.632Z,13.52
2023-04-02T14:16:37.317Z,13.45
2023-04-02T14:19:23.366Z,13.28
2023-04-02T14:22:00.164Z,13.35
2023-04-02T14:24:51.775Z,13.35
2023-04-02T14:27:44.278Z,13.12
2023-04-02T14:30:14.653Z,13.59
2023-04-02T14:32:44.839Z,13.61
2023-04-02T14:35:24.656Z,13.65
2023-04-02T14:38:15.509Z,13.61
2023-04-02T14:40:50.389Z,13.25
2023-04-02T14:43:20.295Z,13.07
2023-04-02T14:45:50.420Z,12.53
2023-04-02T14:48:26.700Z,12.57
2023-04-02T14:50:58.687Z,12.45
2023-04-02T14:53:56.571Z,12.43
2023-04-02T14:56:24.651Z,12.39
2023-04-02T14:59:05.622Z,12.57
2023-04-02T15:01:41.381Z,12.29
2023-04-02T15:04:12.490Z,12.28
2023-04-02T15:06:49.459Z,12.02
2023-04-02T15:09:44.728Z,12.02
2023-04-02T15:12:36.233Z,12.16
2023-04-02T15:15:39.963Z,12.32
2023-04-02T15:18:16.768Z,11.94
2023-04-02T15:21:11.915Z,11.88
2023-04-02T15:23:55.548Z,11.84
2023-04-02T15:26:50.676Z,11.77
2023-04-02T15:29:45.806Z,11.67
2023-04-02T15:32:27.514Z,11.64
2023-04-02T15:35:35.869Z,11.79
2023-04-02T15:38:22.963Z,11.47
2023-04-02T15:41:23.736Z,11.26
2023-04-02T15:43:57.808Z,11.13
2023-04-02T15:47:02.878Z,10.82
2023-04-02T15:49:48.556Z,10.73
2023-04-02T15:52:40.890Z,10.69
2023-04-02T15:55:46.778Z,10.73
2023-04-02T15:58:30.095Z,10.61
2023-04-02T16:01:08.502Z,10.40
2023-04-02T16:03:57.096Z,10.27
2023-04-02T16:07:09.572Z,10.22
2023-04-02T16:09:55.388Z,10.27
2023-04-02T16:12:23.520Z,10.36
2023-04-02T16:14:50.745Z,10.25
2023-04-02T16:17:47.808Z,10.18
2023-04-02T16:20:27.322Z,10.18
2023-04-02T16:23:12.056Z,10.03
2023-04-02T16:25:44.516Z,9.91
2023-04-02T16:28:25.476Z,9.90
2023-04-02T16:31:14.019Z,9.94
2023-04-02T16:34:02.577Z,10.06
2023-04-02T16:36:53.076Z,10.11
2023-04-02T16:39:53.498Z,10.10
2023-04-02T16:42:35.959Z,9.96
2023-04-02T16:45:26.802Z,9.90
2023-04-02T16:48:14.748Z,9.91
2023-04-02T16:50:55.640Z,9.83
2023-04-02T16:53:31.869Z,9.93
2023-04-02T16:56:23.537Z,9.91
2023-04-02T16:59:03.028Z,9.78
2023-04-02T17:01:33.208Z,9.70
2023-04-02T17:04:00.763Z,9.75
2023-04-02T17:06:31.352Z,9.80
2023-04-02T17:09:18.938Z,9.75
2023-04-02T17:11:50.225Z,9.72
2023-04-02T17:14:20.403Z,9.62
2023-04-02T17:16:50.614Z,9.68
2023-04-02T17:19:18.962Z,9.75
2023-04-02T17:21:47.732Z,9.70
2023-04-02T17:24:34.180Z,9.66
2023-04-02T17:27:23.496Z,9.76
2023-04-02T17:29:53.135Z,9.75
2023-04-02T17:32:26.629Z,9.73
2023-04-02T17:34:54.039Z,9.73
2023-04-02T17:37:35.570Z,9.63
2023-04-02T17:40:28.058Z,9.52
2023-04-02T17:43:12.922Z,9.38
2023-04-02T17:45:50.981Z,9.27
2023-04-02T17:48:40.125Z,9.30
2023-04-02T17:51:31.911Z,9.14
2023-04-02T17:54:16.086Z,9.07
2023-04-02T17:56:55.094Z,9.10
2023-04-02T17:59:31.377Z,9.08
2023-04-02T18:02:21.807Z,8.85
2023-04-02T18:04:56.676Z,8.76
2023-04-02T18:07:42.776Z,8.77
2023-04-02T18:10:42.269Z,8.66
2023-04-02T18:13:31.807Z,8.54
2023-04-02T18:16:22.864Z,8.49
2023-04-02T18:19:03.606Z,8.48
2023-04-02T18:21:52.817Z,8.31
2023-04-02T18:24:29.194Z,8.08
2023-04-02T18:27:04.386Z,8.06
2023-04-02T18:29:41.363Z,8.02
2023-04-02T18:32:27.473Z,7.99
2023-04-02T18:35:15.553Z,7.98
2023-04-02T18:38:36.563Z,8.04
2023-04-02T18:41:22.937Z,7.97
2023-04-02T18:44:11.515Z,7.99
2023-04-02T18:47:03.584Z,7.78
2023-04-02T18:49:40.559Z,7.77
2023-04-02T18:52:15.721Z,7.52
2023-04-02T18:54:50.085Z,7.46
2023-04-02T18:57:26.386Z,7.40
2023-04-02T19:00:31.128Z,7.34
2023-04-02T19:03:07.490Z,7.34
2023-04-02T19:05:35.209Z,7.16
2023-04-02T19:08:06.404Z,7.13
2023-04-02T19:10:35.315Z,7.08
2023-04-02T19:13:02.571Z,7.18
2023-04-02T19:15:54.445Z,7.06
2023-04-02T19:18:53.071Z,7.01
2023-04-02T19:21:29.394Z,6.99
2023-04-02T19:24:30.727Z,7.06
2023-04-02T19:27:23.666Z,6.96
2023-04-02T19:30:15.860Z,6.83
2023-04-02T19:33:01.399Z,6.83
2023-04-02T19:35:29.212Z,6.95
2023-04-02T19:38:20.494Z,6.98
2023-04-02T19:40:51.617Z,6.99
2023-04-02T19:43:18.929Z,6.99
2023-04-02T19:45:47.923Z,7.06
2023-04-02T19:48:17.493Z,6.99
2023-04-02T19:50:45.096Z,6.83
2023-04-02T19:53:12.539Z,6.91
2023-04-02T19:55:40.938Z,6.91
2023-04-02T19:58:28.211Z,6.96
2023-04-02T20:00:55.837Z,7.01
2023-04-02T20:03:23.393Z,7.06
2023-04-02T20:05:51.031Z,6.92
2023-04-02T20:08:18.468Z,6.84
2023-04-02T20:10:45.860Z,6.87
2023-04-02T20:13:13.202Z,6.96
2023-04-02T20:15:41.173Z,6.94
2023-04-02T20:18:09.468Z,6.91
2023-04-02T20:20:37.965Z,6.88
2023-04-02T20:23:05.498Z,6.85
2023-04-02T20:25:32.862Z,6.80
2023-04-02T20:28:01.211Z,6.65
2023-04-02T20:30:28.482Z,6.80
2023-04-02T20:32:58.539Z,6.83
2023-04-02T20:35:26.611Z,6.83
2023-04-02T20:37:54.042Z,6.77
2023-04-02T20:40:21.800Z,6.71
2023-04-02T20:42:49.158Z,6.77
2023-04-02T20:45:16.691Z,6.81
2023-04-02T20:47:43.959Z,6.88
2023-04-02T20:50:11.496Z,6.85
2023-04-02T20:52:38.682Z,6.87
2023-04-02T20:55:06.644Z,6.68
2023-04-02T20:57:34.110Z,6.63
2023-04-02T21:00:03.703Z,6.68
2023-04-02T21:02:31.035Z,6.67
2023-04-02T21:04:58.393Z,6.63
2023-04-02T21:07:25.705Z,6.64
2023-04-02T21:09:53.392Z,6.58
2023-04-02T21:12:20.693Z,6.48
2023-04-02T21:14:48.728Z,6.43
2023-04-02T21:17:16.194Z,6.27
2023-04-02T21:19:43.516Z,6.26
2023-04-02T21:22:10.728Z,6.20
2023-04-02T21:24:38.017Z,6.15
2023-04-02T21:27:05.425Z,6.17
2023-04-02T21:29:32.733Z,6.22
2023-04-02T21:32:01.564Z,6.23
2023-04-02T21:34:32.944Z,6.16
2023-04-02T21:37:00.586Z,6.06
2023-04-02T21:39:27.869Z,6.05
2023-04-02T21:41:55.183Z,6.02
2023-04-02T21:44:23.245Z,6.01
2023-04-02T21:46:53.036Z,5.98
2023-04-02T21:49:22.897Z,5.99
2023-04-02T21:51:51.800Z,6.01
2023-04-02T21:54:19.189Z,6.03
2023-04-02T21:56:46.485Z,6.01
2023-04-02T21:59:14.654Z,6.03
2023-04-02T22:01:47.029Z,6.10
2023-04-02T22:04:21.834Z,6.19
2023-04-02T22:06:49.321Z,6.16
2023-04-02T22:09:23.601Z,6.16
2023-04-02T22:11:54.321Z,6.13
2023-04-02T22:14:21.916Z,6.23
2023-04-02T22:16:49.201Z,6.27
2023-04-02T22:19:16.705Z,6.16
2023-04-02T22:21:43.979Z,6.03
2023-04-02T22:24:13.506Z,6.01
2023-04-02T22:26:41.030Z,5.98
2023-04-02T22:29:08.289Z,5.99
2023-04-02T22:31:35.980Z,5.92
2023-04-02T22:34:04.124Z,5.91
2023-04-02T22:36:31.517Z,6.01
2023-04-02T22:38:59.174Z,5.99
2023-04-02T22:41:28.388Z,5.96
2023-04-02T22:43:56.337Z,5.95
2023-04-02T22:46:23.895Z,5.89
2023-04-02T22:48:51.191Z,5.81
2023-04-02T22:51:19.961Z,5.81
2023-04-02T22:53:47.624Z,5.85
2023-04-02T22:56:19.726Z,5.82
2023-04-02T22:58:47.017Z,5.85
2023-04-02T23:01:15.936Z,5.92
2023-04-02T23:03:43.310Z,5.91
2023-04-02T23:06:13.293Z,5.95
2023-04-02T23:08:40.667Z,6.06
2023-04-02T23:11:10.124Z,6.05
2023-04-02T23:13:37.675Z,6.01
2023-04-02T23:16:07.235Z,6.12
2023-04-02T23:18:35.324Z,6.03
2023-04-02T23:21:02.783Z,6.06
2023-04-02T23:23:30.546Z,6.12
2023-04-02T23:26:13.303Z,6.09
2023-04-02T23:28:40.709Z,5.99
2023-04-02T23:31:11.252Z,5.96
2023-04-02T23:33:38.596Z,6.01
2023-04-02T23:36:16.590Z,5.94
2023-04-02T23:38:43.889Z,5.94
2023-04-02T23:41:15.166Z,5.89
2023-04-02T23:43:42.665Z,5.82
2023-04-02T23:46:09.837Z,5.86
2023-04-02T23:48:37.164Z,5.82
2023-04-02T23:51:04.767Z,5.81
2023-04-02T23:53:33.113Z,5.79
2023-04-02T23:56:00.420Z,5.82
2023-04-02T23:58:27.770Z,5.79
